createdAt,value
2023-01-25T00:00:33.752Z,101488.00
2023-01-25T00:01:20.591Z,101479.78
2023-01-25T00:02:07.559Z,101485.78
2023-01-25T00:02:54.497Z,101485.69
2023-01-25T00:03:41.404Z,101486.12
2023-01-25T00:04:28.420Z,101486.31
2023-01-25T00:05:15.343Z,101485.00
2023-01-25T00:06:02.399Z,101486.91
2023-01-25T00:06:49.842Z,101492.31
2023-01-25T00:07:36.671Z,101486.72
2023-01-25T00:08:23.530Z,101486.66
2023-01-25T00:09:11.535Z,101477.69
2023-01-25T00:09:58.431Z,101489.44
2023-01-25T00:10:45.369Z,101489.25
2023-01-25T00:11:32.217Z,101490.28
2023-01-25T00:12:19.089Z,101490.56
2023-01-25T00:13:06.119Z,101487.84
2023-01-25T00:13:56.751Z,101483.34
2023-01-25T00:14:43.390Z,101493.19
2023-01-25T00:15:30.908Z,101492.25
2023-01-25T00:16:17.843Z,101491.97
2023-01-25T00:17:04.955Z,101495.00
2023-01-25T00:17:51.845Z,101486.41
2023-01-25T00:18:38.699Z,101494.34
2023-01-25T00:19:25.571Z,101486.84
2023-01-25T00:20:12.457Z,101495.78
2023-01-25T00:20:59.367Z,101490.84
2023-01-25T00:21:46.373Z,101489.00
2023-01-25T00:22:33.360Z,101479.97
2023-01-25T00:23:20.230Z,101478.56
2023-01-25T00:24:07.931Z,101481.06
2023-01-25T00:24:54.772Z,101484.41
2023-01-25T00:25:41.600Z,101476.06
2023-01-25T00:26:32.616Z,101482.72
2023-01-25T00:27:19.719Z,101480.97
2023-01-25T00:28:06.607Z,101475.41
2023-01-25T00:28:54.636Z,101474.28
2023-01-25T00:29:41.612Z,101470.72
2023-01-25T00:30:28.471Z,101471.69
2023-01-25T00:31:22.546Z,101477.72
2023-01-25T00:32:15.631Z,101483.00
2023-01-25T00:33:07.461Z,101476.81
2023-01-25T00:34:02.394Z,101476.06
2023-01-25T00:34:50.894Z,101479.03
2023-01-25T00:35:38.452Z,101481.81
2023-01-25T00:36:38.277Z,101471.37
2023-01-25T00:37:36.395Z,101477.87
2023-01-25T00:38:35.089Z,101476.91
2023-01-25T00:39:22.044Z,101471.37
2023-01-25T00:40:11.270Z,101471.09
2023-01-25T00:40:59.193Z,101473.38
2023-01-25T00:41:46.230Z,101466.94
2023-01-25T00:42:33.450Z,101476.41
2023-01-25T00:43:20.370Z,101471.34
2023-01-25T00:44:07.514Z,101474.78
2023-01-25T00:44:54.470Z,101474.72
2023-01-25T00:45:41.461Z,101473.53
2023-01-25T00:46:28.410Z,101473.69
2023-01-25T00:47:16.039Z,101471.47
2023-01-25T00:48:02.990Z,101469.88
2023-01-25T00:48:50.101Z,101474.28
2023-01-25T00:49:38.068Z,101483.72
2023-01-25T00:50:25.174Z,101475.94
2023-01-25T00:51:12.291Z,101474.88
2023-01-25T00:51:59.710Z,101477.56
2023-01-25T00:52:46.623Z,101481.47
2023-01-25T00:53:33.770Z,101469.84
2023-01-25T00:54:20.864Z,101478.38
2023-01-25T00:55:08.840Z,101480.87
2023-01-25T00:55:56.030Z,101478.22
2023-01-25T00:56:43.023Z,101476.53
2023-01-25T00:57:30.004Z,101482.62
2023-01-25T00:58:16.937Z,101479.22
2023-01-25T00:59:03.965Z,101473.81
2023-01-25T00:59:50.964Z,101482.47
2023-01-25T01:00:37.892Z,101484.47
2023-01-25T01:01:24.852Z,101481.06
2023-01-25T01:02:12.412Z,101482.31
2023-01-25T01:02:59.309Z,101480.94
2023-01-25T01:03:46.662Z,101481.72
2023-01-25T01:04:33.763Z,101489.09
2023-01-25T01:05:20.710Z,101484.97
2023-01-25T01:06:10.213Z,101478.56
2023-01-25T01:06:57.227Z,101490.16
2023-01-25T01:07:44.237Z,101489.34
2023-01-25T01:08:33.885Z,101491.63
2023-01-25T01:09:21.762Z,101490.22
2023-01-25T01:10:09.038Z,101494.28
2023-01-25T01:11:01.099Z,101488.66
2023-01-25T01:11:48.339Z,101490.03
2023-01-25T01:12:35.310Z,101497.66
2023-01-25T01:13:22.249Z,101493.50
2023-01-25T01:14:09.604Z,101493.50
2023-01-25T01:14:57.021Z,101488.13
2023-01-25T01:15:43.973Z,101491.56
2023-01-25T01:16:31.014Z,101488.56
2023-01-25T01:17:18.018Z,101485.81
2023-01-25T01:18:05.011Z,101482.72
2023-01-25T01:18:52.010Z,101488.13
2023-01-25T01:19:38.948Z,101491.37
2023-01-25T01:20:25.914Z,101491.56
2023-01-25T01:21:14.189Z,101491.37
2023-01-25T01:22:01.109Z,101490.09
2023-01-25T01:22:48.093Z,101492.50
2023-01-25T01:23:35.620Z,101496.06
2023-01-25T01:24:22.624Z,101493.50
2023-01-25T01:25:11.036Z,101497.19
2023-01-25T01:26:01.885Z,101492.09
2023-01-25T01:26:48.839Z,101491.66
2023-01-25T01:27:35.828Z,101498.53
2023-01-25T01:28:22.749Z,101486.28
2023-01-25T01:29:09.725Z,101493.66
2023-01-25T01:29:56.646Z,101495.09
2023-01-25T01:30:43.599Z,101497.47
2023-01-25T01:31:30.760Z,101498.78
2023-01-25T01:32:17.946Z,101497.91
2023-01-25T01:33:04.911Z,101496.59
2023-01-25T01:33:53.528Z,101496.50
2023-01-25T01:34:40.472Z,101492.59
2023-01-25T01:35:29.415Z,101498.34
2023-01-25T01:36:18.108Z,101494.66
2023-01-25T01:37:05.137Z,101486.41
2023-01-25T01:37:52.149Z,101490.09
2023-01-25T01:38:39.150Z,101488.81
2023-01-25T01:39:26.657Z,101496.12
2023-01-25T01:40:17.381Z,101490.28
2023-01-25T01:41:04.481Z,101489.16
2023-01-25T01:41:51.598Z,101494.16
2023-01-25T01:42:57.291Z,101500.81
2023-01-25T01:43:44.531Z,101494.84
2023-01-25T01:44:45.199Z,101495.28
2023-01-25T01:45:44.580Z,101500.75
2023-01-25T01:46:40.500Z,101498.41
2023-01-25T01:47:39.790Z,101504.69
2023-01-25T01:48:29.738Z,101501.53
2023-01-25T01:49:29.449Z,101498.94
2023-01-25T01:50:21.812Z,101499.28
2023-01-25T01:51:42.431Z,101494.84
2023-01-25T01:52:31.876Z,101495.78
2023-01-25T01:53:19.968Z,101500.03
2023-01-25T01:54:15.200Z,101497.44
2023-01-25T01:55:13.871Z,101488.31
2023-01-25T01:56:03.610Z,101493.31
2023-01-25T01:56:58.091Z,101490.50
2023-01-25T01:57:49.054Z,101487.75
2023-01-25T01:58:36.789Z,101485.81
2023-01-25T01:59:27.968Z,101487.41
2023-01-25T02:00:17.294Z,101487.97
2023-01-25T02:01:04.490Z,101484.63
2023-01-25T02:01:51.710Z,101484.00
2023-01-25T02:02:38.644Z,101486.41
2023-01-25T02:03:26.048Z,101480.63
2023-01-25T02:04:13.724Z,101473.63
2023-01-25T02:05:01.715Z,101477.44
2023-01-25T02:06:06.778Z,101476.47
2023-01-25T02:06:58.869Z,101470.53
2023-01-25T02:07:47.632Z,101473.63
2023-01-25T02:08:37.089Z,101470.78
2023-01-25T02:09:25.967Z,101471.63
2023-01-25T02:10:13.689Z,101470.38
2023-01-25T02:11:01.509Z,101478.31
2023-01-25T02:11:48.680Z,101478.50
2023-01-25T02:12:36.231Z,101478.97
2023-01-25T02:13:23.258Z,101469.84
2023-01-25T02:14:10.371Z,101471.09
2023-01-25T02:14:57.330Z,101463.28
2023-01-25T02:15:48.267Z,101478.31
2023-01-25T02:16:35.466Z,101476.06
2023-01-25T02:17:29.835Z,101473.47
2023-01-25T02:18:18.219Z,101475.94
2023-01-25T02:19:05.620Z,101478.84
2023-01-25T02:20:07.489Z,101475.28
2023-01-25T02:20:57.886Z,101465.53
2023-01-25T02:21:46.468Z,101475.81
2023-01-25T02:23:11.309Z,101479.22
2023-01-25T02:24:08.442Z,101475.06
2023-01-25T02:25:12.934Z,101470.34
2023-01-25T02:26:02.503Z,101467.87
2023-01-25T02:26:49.630Z,101468.09
2023-01-25T02:27:40.108Z,101468.63
2023-01-25T02:28:32.809Z,101464.31
2023-01-25T02:29:23.335Z,101471.09
2023-01-25T02:30:10.784Z,101470.72
2023-01-25T02:30:57.852Z,101459.91
2023-01-25T02:31:46.313Z,101465.69
2023-01-25T02:32:33.786Z,101463.09
2023-01-25T02:33:23.837Z,101463.97
2023-01-25T02:34:10.750Z,101463.72
2023-01-25T02:34:57.692Z,101466.31
2023-01-25T02:35:51.629Z,101466.97
2023-01-25T02:36:38.815Z,101463.28
2023-01-25T02:37:25.965Z,101461.81
2023-01-25T02:38:14.920Z,101458.25
2023-01-25T02:39:08.802Z,101462.25
2023-01-25T02:39:55.690Z,101459.25
2023-01-25T02:40:48.838Z,101463.03
2023-01-25T02:41:41.424Z,101462.28
2023-01-25T02:42:31.481Z,101452.56
2023-01-25T02:43:18.860Z,101457.06
2023-01-25T02:44:11.560Z,101447.09
2023-01-25T02:44:58.530Z,101453.25
2023-01-25T02:45:51.213Z,101453.50
2023-01-25T02:46:39.712Z,101450.06
2023-01-25T02:47:26.641Z,101447.03
2023-01-25T02:48:13.709Z,101438.88
2023-01-25T02:49:01.380Z,101444.91
2023-01-25T02:49:48.328Z,101442.66
2023-01-25T02:50:35.303Z,101452.25
2023-01-25T02:51:24.102Z,101450.22
2023-01-25T02:52:11.141Z,101449.44
2023-01-25T02:52:58.082Z,101437.81
2023-01-25T02:53:45.051Z,101448.09
2023-01-25T02:54:32.175Z,101448.66
2023-01-25T02:55:19.190Z,101442.12
2023-01-25T02:56:06.382Z,101444.16
2023-01-25T02:56:53.698Z,101440.66
2023-01-25T02:57:40.953Z,101437.72
2023-01-25T02:58:27.916Z,101434.84
2023-01-25T02:59:15.810Z,101434.78
2023-01-25T03:00:03.849Z,101442.72
2023-01-25T03:00:50.840Z,101440.63
2023-01-25T03:01:39.476Z,101427.28
2023-01-25T03:02:26.738Z,101439.84
2023-01-25T03:03:13.791Z,101435.38
2023-01-25T03:04:00.749Z,101433.25
2023-01-25T03:04:47.876Z,101429.69
2023-01-25T03:05:34.991Z,101432.53
2023-01-25T03:06:21.875Z,101438.00
2023-01-25T03:07:08.862Z,101437.06
2023-01-25T03:07:55.832Z,101433.44
2023-01-25T03:08:43.156Z,101440.06
2023-01-25T03:09:30.070Z,101431.41
2023-01-25T03:10:17.127Z,101426.75
2023-01-25T03:11:06.117Z,101433.94
2023-01-25T03:11:53.128Z,101426.66
2023-01-25T03:12:40.075Z,101434.59
2023-01-25T03:13:27.664Z,101429.44
2023-01-25T03:14:17.692Z,101429.28
2023-01-25T03:15:05.341Z,101425.69
2023-01-25T03:15:52.884Z,101425.16
2023-01-25T03:16:39.884Z,101422.06
2023-01-25T03:17:26.830Z,101422.75
2023-01-25T03:18:13.764Z,101425.81
2023-01-25T03:19:00.716Z,101411.97
2023-01-25T03:19:47.714Z,101415.47
2023-01-25T03:20:34.648Z,101419.22
2023-01-25T03:21:22.595Z,101426.44
2023-01-25T03:22:11.271Z,101428.59
2023-01-25T03:22:58.240Z,101422.31
2023-01-25T03:23:46.537Z,101417.53
2023-01-25T03:24:33.512Z,101429.44
2023-01-25T03:25:20.528Z,101421.03
2023-01-25T03:26:19.121Z,101420.47
2023-01-25T03:27:13.458Z,101422.81
2023-01-25T03:28:00.328Z,101423.50
2023-01-25T03:28:47.361Z,101426.56
2023-01-25T03:29:34.323Z,101423.66
2023-01-25T03:30:21.248Z,101424.25
2023-01-25T03:31:09.833Z,101428.53
2023-01-25T03:31:56.874Z,101428.41
2023-01-25T03:32:43.862Z,101422.81
2023-01-25T03:33:30.821Z,101422.75
2023-01-25T03:34:17.792Z,101427.66
2023-01-25T03:35:05.916Z,101425.19
2023-01-25T03:35:54.685Z,101422.84
2023-01-25T03:36:41.668Z,101427.06
2023-01-25T03:37:31.404Z,101430.53
2023-01-25T03:38:19.973Z,101423.25
2023-01-25T03:39:06.901Z,101430.56
2023-01-25T03:39:53.857Z,101429.53
2023-01-25T03:40:40.845Z,101424.78
2023-01-25T03:41:27.896Z,101424.28
2023-01-25T03:42:15.550Z,101422.84
2023-01-25T03:43:02.460Z,101430.00
2023-01-25T03:43:49.531Z,101426.50
2023-01-25T03:44:36.463Z,101435.00
2023-01-25T03:45:23.421Z,101425.47
2023-01-25T03:46:10.374Z,101425.47
2023-01-25T03:46:57.489Z,101425.16
2023-01-25T03:47:44.462Z,101420.91
2023-01-25T03:48:31.932Z,101425.88
2023-01-25T03:49:18.956Z,101428.16
2023-01-25T03:50:06.457Z,101424.25
2023-01-25T03:50:55.767Z,101415.75
2023-01-25T03:51:42.718Z,101419.06
2023-01-25T03:52:34.528Z,101427.91
2023-01-25T03:53:30.681Z,101418.94
2023-01-25T03:54:17.644Z,101424.91
2023-01-25T03:55:05.497Z,101419.13
2023-01-25T03:55:52.406Z,101424.06
2023-01-25T03:56:39.573Z,101421.94
2023-01-25T03:57:26.614Z,101415.41
2023-01-25T03:58:13.587Z,101416.09
2023-01-25T03:59:00.511Z,101417.31
2023-01-25T03:59:47.493Z,101415.59
2023-01-25T04:00:34.529Z,101415.59
2023-01-25T04:01:21.533Z,101414.66
2023-01-25T04:02:08.519Z,101417.31
2023-01-25T04:02:55.515Z,101409.72
2023-01-25T04:03:42.572Z,101412.44
2023-01-25T04:04:29.507Z,101419.66
2023-01-25T04:05:16.535Z,101414.38
2023-01-25T04:06:05.145Z,101406.13
2023-01-25T04:06:52.145Z,101412.16
2023-01-25T04:07:39.123Z,101407.53
2023-01-25T04:08:26.474Z,101407.81
2023-01-25T04:09:14.827Z,101411.81
2023-01-25T04:10:01.816Z,101409.72
2023-01-25T04:11:01.562Z,101409.06
2023-01-25T04:11:51.891Z,101408.59
2023-01-25T04:12:38.972Z,101411.03
2023-01-25T04:13:27.071Z,101417.81
2023-01-25T04:14:14.035Z,101405.72
2023-01-25T04:15:00.985Z,101401.06
2023-01-25T04:15:48.218Z,101412.25
2023-01-25T04:16:36.312Z,101411.94
2023-01-25T04:17:23.318Z,101415.31
2023-01-25T04:18:10.511Z,101413.44
2023-01-25T04:18:57.529Z,101413.50
2023-01-25T04:19:44.514Z,101413.25
2023-01-25T04:20:31.487Z,101415.69
2023-01-25T04:21:18.480Z,101419.50
2023-01-25T04:22:05.406Z,101420.09
2023-01-25T04:22:52.517Z,101426.75
2023-01-25T04:23:39.454Z,101421.66
2023-01-25T04:24:26.518Z,101415.75
2023-01-25T04:25:13.530Z,101418.12
2023-01-25T04:26:02.507Z,101413.00
2023-01-25T04:26:49.508Z,101413.91
2023-01-25T04:27:36.459Z,101412.63
2023-01-25T04:28:24.246Z,101418.81
2023-01-25T04:29:11.209Z,101412.94
2023-01-25T04:29:58.173Z,101425.38
2023-01-25T04:30:45.400Z,101417.28
2023-01-25T04:31:32.473Z,101420.59
2023-01-25T04:32:19.593Z,101417.88
2023-01-25T04:33:07.042Z,101409.81
2023-01-25T04:33:54.051Z,101417.88
2023-01-25T04:34:41.104Z,101415.69
2023-01-25T04:35:28.195Z,101410.13
2023-01-25T04:36:15.088Z,101413.31
2023-01-25T04:37:02.047Z,101406.28
2023-01-25T04:37:59.184Z,101408.66
2023-01-25T04:38:46.097Z,101404.91
2023-01-25T04:39:32.987Z,101410.00
2023-01-25T04:40:20.052Z,101408.75
2023-01-25T04:41:07.105Z,101414.78
2023-01-25T04:41:54.103Z,101410.63
2023-01-25T04:42:40.998Z,101413.25
2023-01-25T04:43:27.979Z,101410.53
2023-01-25T04:44:14.902Z,101404.91
2023-01-25T04:45:02.023Z,101406.22
2023-01-25T04:45:49.222Z,101405.94
2023-01-25T04:46:36.174Z,101405.78
2023-01-25T04:47:23.114Z,101404.50
2023-01-25T04:48:11.762Z,101402.81
2023-01-25T04:48:58.683Z,101410.84
2023-01-25T04:49:45.624Z,101414.66
2023-01-25T04:50:32.652Z,101411.00
2023-01-25T04:51:19.619Z,101401.41
2023-01-25T04:52:06.603Z,101405.28
2023-01-25T04:52:53.936Z,101398.69
2023-01-25T04:53:40.844Z,101409.19
2023-01-25T04:54:27.902Z,101404.09
2023-01-25T04:55:14.897Z,101407.22
2023-01-25T04:56:01.865Z,101406.84
2023-01-25T04:56:48.815Z,101401.22
2023-01-25T04:57:35.743Z,101403.66
2023-01-25T04:58:22.878Z,101408.62
2023-01-25T04:59:10.766Z,101394.59
2023-01-25T04:59:57.707Z,101398.16
2023-01-25T05:00:44.705Z,101396.13
2023-01-25T05:01:33.748Z,101400.38
2023-01-25T05:02:21.209Z,101403.22
2023-01-25T05:03:08.239Z,101396.06
2023-01-25T05:03:55.221Z,101397.88
2023-01-25T05:04:42.203Z,101395.78
2023-01-25T05:05:29.144Z,101398.31
2023-01-25T05:06:16.124Z,101392.87
2023-01-25T05:07:03.284Z,101394.28
2023-01-25T05:07:50.284Z,101401.09
2023-01-25T05:08:37.236Z,101399.16
2023-01-25T05:09:24.170Z,101402.97
2023-01-25T05:10:11.543Z,101403.63
2023-01-25T05:10:58.499Z,101404.31
2023-01-25T05:11:45.456Z,101393.16
2023-01-25T05:12:32.638Z,101406.06
2023-01-25T05:13:19.671Z,101405.53
2023-01-25T05:14:06.647Z,101403.47
2023-01-25T05:14:53.840Z,101406.34
2023-01-25T05:15:40.788Z,101408.25
2023-01-25T05:16:28.010Z,101404.59
2023-01-25T05:17:14.999Z,101404.97
2023-01-25T05:18:01.979Z,101411.66
2023-01-25T05:18:49.499Z,101412.78
2023-01-25T05:19:36.612Z,101420.44
2023-01-25T05:20:23.518Z,101415.09
2023-01-25T05:21:30.387Z,101407.19
2023-01-25T05:22:20.933Z,101414.62
2023-01-25T05:23:08.031Z,101414.28
2023-01-25T05:23:55.557Z,101424.97
2023-01-25T05:24:43.903Z,101422.53
2023-01-25T05:25:49.349Z,101420.22
2023-01-25T05:26:55.031Z,101412.78
2023-01-25T05:27:41.931Z,101417.13
2023-01-25T05:28:28.890Z,101409.78
2023-01-25T05:29:15.877Z,101409.63
2023-01-25T05:30:02.887Z,101412.91
2023-01-25T05:30:49.840Z,101413.22
2023-01-25T05:31:36.954Z,101400.16
2023-01-25T05:32:24.669Z,101412.19
2023-01-25T05:33:11.587Z,101407.69
2023-01-25T05:33:58.522Z,101409.28
2023-01-25T05:34:45.940Z,101410.47
2023-01-25T05:35:32.864Z,101406.97
2023-01-25T05:36:20.045Z,101408.81
2023-01-25T05:37:09.368Z,101411.38
2023-01-25T05:37:57.767Z,101405.56
2023-01-25T05:38:44.729Z,101410.22
2023-01-25T05:39:31.709Z,101414.19
2023-01-25T05:40:18.695Z,101417.75
2023-01-25T05:41:05.771Z,101419.38
2023-01-25T05:41:52.751Z,101424.75
2023-01-25T05:42:40.260Z,101415.88
2023-01-25T05:43:27.161Z,101417.03
2023-01-25T05:44:14.176Z,101418.00
2023-01-25T05:45:01.151Z,101419.69
2023-01-25T05:45:53.503Z,101415.72
2023-01-25T05:46:40.762Z,101419.63
2023-01-25T05:47:27.857Z,101425.00
2023-01-25T05:48:14.819Z,101421.19
2023-01-25T05:49:01.806Z,101424.78
2023-01-25T05:49:48.751Z,101413.72
2023-01-25T05:50:35.815Z,101417.75
2023-01-25T05:51:22.952Z,101413.06
2023-01-25T05:52:15.096Z,101408.53
2023-01-25T05:53:02.120Z,101413.47
2023-01-25T05:53:49.076Z,101414.88
2023-01-25T05:54:36.026Z,101412.69
2023-01-25T05:55:23.089Z,101421.13
2023-01-25T05:56:13.063Z,101414.50
2023-01-25T05:57:00.487Z,101414.25
2023-01-25T05:57:47.412Z,101419.94
2023-01-25T05:58:34.558Z,101433.53
2023-01-25T05:59:21.540Z,101422.34
2023-01-25T06:00:09.601Z,101428.25
2023-01-25T06:00:56.531Z,101423.37
2023-01-25T06:01:43.901Z,101427.47
2023-01-25T06:02:32.335Z,101428.69
2023-01-25T06:03:19.409Z,101424.25
2023-01-25T06:04:07.060Z,101419.72
2023-01-25T06:04:54.060Z,101428.38
2023-01-25T06:05:40.996Z,101422.03
2023-01-25T06:06:28.144Z,101424.47
2023-01-25T06:07:15.179Z,101426.50
2023-01-25T06:08:02.188Z,101431.03
2023-01-25T06:08:49.477Z,101435.81
2023-01-25T06:09:36.586Z,101428.00
2023-01-25T06:10:23.517Z,101431.13
2023-01-25T06:11:12.918Z,101429.94
2023-01-25T06:11:59.884Z,101434.47
2023-01-25T06:12:46.793Z,101435.25
2023-01-25T06:13:33.858Z,101433.28
2023-01-25T06:14:20.976Z,101434.56
2023-01-25T06:15:08.714Z,101429.84
2023-01-25T06:15:56.599Z,101434.94
2023-01-25T06:16:43.598Z,101428.50
2023-01-25T06:17:30.632Z,101434.53
2023-01-25T06:18:17.661Z,101435.22
2023-01-25T06:19:08.350Z,101426.06
2023-01-25T06:19:55.184Z,101426.78
2023-01-25T06:20:42.261Z,101427.44
2023-01-25T06:21:29.294Z,101423.50
2023-01-25T06:22:16.321Z,101431.00
2023-01-25T06:23:03.319Z,101438.59
2023-01-25T06:23:50.327Z,101436.44
2023-01-25T06:24:37.368Z,101425.31
2023-01-25T06:25:24.353Z,101435.03
2023-01-25T06:26:13.510Z,101433.41
2023-01-25T06:27:00.421Z,101426.81
2023-01-25T06:27:47.388Z,101433.16
2023-01-25T06:28:35.975Z,101433.06
2023-01-25T06:29:23.018Z,101437.28
2023-01-25T06:30:10.844Z,101435.47
2023-01-25T06:30:57.892Z,101439.84
2023-01-25T06:31:45.225Z,101435.16
2023-01-25T06:32:33.421Z,101438.34
2023-01-25T06:33:20.397Z,101439.78
2023-01-25T06:34:08.862Z,101436.28
2023-01-25T06:34:55.834Z,101439.72
2023-01-25T06:35:43.687Z,101444.00
2023-01-25T06:36:30.875Z,101437.75
2023-01-25T06:37:17.789Z,101443.16
2023-01-25T06:38:04.724Z,101445.72
2023-01-25T06:38:52.785Z,101438.78
2023-01-25T06:39:40.256Z,101434.69
2023-01-25T06:40:28.614Z,101430.84
2023-01-25T06:41:15.648Z,101432.06
2023-01-25T06:42:02.571Z,101435.16
2023-01-25T06:42:49.647Z,101434.75
2023-01-25T06:43:37.273Z,101436.47
2023-01-25T06:44:24.182Z,101431.31
2023-01-25T06:45:12.174Z,101431.91
2023-01-25T06:46:05.152Z,101430.88
2023-01-25T06:46:52.239Z,101429.19
2023-01-25T06:47:40.084Z,101435.78
2023-01-25T06:48:27.846Z,101423.09
2023-01-25T06:49:14.830Z,101429.87
2023-01-25T06:50:01.784Z,101421.97
2023-01-25T06:50:57.237Z,101417.94
2023-01-25T06:51:44.226Z,101417.53
2023-01-25T06:52:32.088Z,101422.22
2023-01-25T06:53:19.450Z,101416.41
2023-01-25T06:54:06.453Z,101422.22
2023-01-25T06:54:53.356Z,101423.50
2023-01-25T06:55:40.332Z,101420.44
2023-01-25T06:56:27.946Z,101414.31
2023-01-25T06:57:14.862Z,101413.19
2023-01-25T06:58:02.060Z,101419.81
2023-01-25T06:58:49.969Z,101422.38
2023-01-25T06:59:37.001Z,101424.13
2023-01-25T07:00:24.109Z,101425.25
2023-01-25T07:01:22.322Z,101420.59
2023-01-25T07:02:15.147Z,101423.25
2023-01-25T07:03:02.272Z,101428.22
2023-01-25T07:03:50.498Z,101421.13
2023-01-25T07:04:37.540Z,101423.59
2023-01-25T07:05:24.454Z,101423.50
2023-01-25T07:06:12.007Z,101430.03
2023-01-25T07:06:59.094Z,101427.97
2023-01-25T07:07:46.840Z,101433.91
2023-01-25T07:08:34.647Z,101425.72
2023-01-25T07:09:24.769Z,101423.94
2023-01-25T07:10:11.769Z,101431.22
2023-01-25T07:11:00.675Z,101432.09
2023-01-25T07:11:47.664Z,101430.28
2023-01-25T07:12:34.617Z,101434.06
2023-01-25T07:13:21.703Z,101427.50
2023-01-25T07:14:08.777Z,101429.50
2023-01-25T07:14:55.741Z,101428.88
2023-01-25T07:15:42.661Z,101434.06
2023-01-25T07:16:29.844Z,101428.88
2023-01-25T07:17:16.773Z,101423.31
2023-01-25T07:18:15.735Z,101433.87
2023-01-25T07:19:05.214Z,101428.19
2023-01-25T07:19:52.157Z,101431.22
2023-01-25T07:20:39.058Z,101428.34
2023-01-25T07:21:26.064Z,101437.59
2023-01-25T07:22:12.988Z,101424.69
2023-01-25T07:23:02.113Z,101429.41
2023-01-25T07:23:50.346Z,101425.09
2023-01-25T07:24:37.367Z,101426.97
2023-01-25T07:25:24.273Z,101425.09
2023-01-25T07:26:16.926Z,101439.19
2023-01-25T07:27:03.846Z,101439.94
2023-01-25T07:27:50.831Z,101437.94
2023-01-25T07:28:37.820Z,101436.03
2023-01-25T07:29:24.744Z,101434.00
2023-01-25T07:30:12.072Z,101437.63
2023-01-25T07:31:06.621Z,101431.47
2023-01-25T07:31:53.715Z,101439.84
2023-01-25T07:32:40.758Z,101432.75
2023-01-25T07:33:27.817Z,101430.97
2023-01-25T07:34:15.126Z,101438.47
2023-01-25T07:35:02.119Z,101434.91
2023-01-25T07:35:51.247Z,101438.06
2023-01-25T07:36:38.662Z,101431.22
2023-01-25T07:37:27.999Z,101429.16
2023-01-25T07:38:15.103Z,101433.91
2023-01-25T07:39:02.134Z,101432.63
2023-01-25T07:39:50.771Z,101436.72
2023-01-25T07:40:37.746Z,101438.34
2023-01-25T07:41:25.823Z,101442.56
2023-01-25T07:42:12.767Z,101435.25
2023-01-25T07:42:59.746Z,101427.06
2023-01-25T07:43:46.705Z,101436.00
2023-01-25T07:44:33.633Z,101436.87
2023-01-25T07:45:20.721Z,101439.81
2023-01-25T07:46:11.586Z,101434.28
2023-01-25T07:46:58.591Z,101431.66
2023-01-25T07:47:45.783Z,101431.31
2023-01-25T07:48:33.440Z,101431.22
2023-01-25T07:49:20.374Z,101428.91
2023-01-25T07:50:07.612Z,101443.72
2023-01-25T07:51:11.793Z,101436.22
2023-01-25T07:52:01.035Z,101429.84
2023-01-25T07:52:47.950Z,101432.81
2023-01-25T07:53:34.857Z,101436.00
2023-01-25T07:54:22.037Z,101430.28
2023-01-25T07:55:10.328Z,101434.25
2023-01-25T07:55:59.152Z,101436.94
2023-01-25T07:56:46.077Z,101433.75
2023-01-25T07:57:33.071Z,101424.63
2023-01-25T07:58:20.000Z,101431.97
2023-01-25T07:59:10.138Z,101420.44
2023-01-25T07:59:57.112Z,101425.00
2023-01-25T08:00:44.017Z,101427.16
2023-01-25T08:01:35.258Z,101426.41
2023-01-25T08:02:22.275Z,101422.84
2023-01-25T08:03:10.349Z,101427.06
2023-01-25T08:03:57.496Z,101426.34
2023-01-25T08:04:45.752Z,101433.31
2023-01-25T08:05:32.699Z,101427.41
2023-01-25T08:06:27.684Z,101423.31
2023-01-25T08:07:15.287Z,101428.88
2023-01-25T08:08:04.289Z,101424.94
2023-01-25T08:08:51.251Z,101417.84
2023-01-25T08:09:38.283Z,101422.56
2023-01-25T08:10:25.334Z,101429.91
2023-01-25T08:11:18.385Z,101431.72
2023-01-25T08:12:08.571Z,101425.03
2023-01-25T08:12:55.649Z,101427.34
2023-01-25T08:13:52.205Z,101429.97
2023-01-25T08:14:39.440Z,101426.09
2023-01-25T08:15:26.454Z,101425.31
2023-01-25T08:16:14.266Z,101425.12
2023-01-25T08:17:02.105Z,101421.91
2023-01-25T08:17:49.172Z,101419.63
2023-01-25T08:18:36.855Z,101423.44
2023-01-25T08:19:25.222Z,101418.00
2023-01-25T08:20:13.037Z,101411.72
2023-01-25T08:21:01.580Z,101416.41
2023-01-25T08:21:48.457Z,101407.34
2023-01-25T08:22:35.845Z,101406.37
2023-01-25T08:23:22.727Z,101413.59
2023-01-25T08:24:09.877Z,101414.84
2023-01-25T08:24:57.099Z,101409.78
2023-01-25T08:25:44.021Z,101403.09
2023-01-25T08:26:31.727Z,101404.53
2023-01-25T08:27:18.837Z,101403.22
2023-01-25T08:28:06.012Z,101405.38
2023-01-25T08:28:54.108Z,101401.41
2023-01-25T08:29:41.037Z,101400.25
2023-01-25T08:30:28.064Z,101401.03
2023-01-25T08:31:19.072Z,101397.97
2023-01-25T08:32:06.552Z,101400.28
2023-01-25T08:32:54.300Z,101396.09
2023-01-25T08:33:42.675Z,101397.81
2023-01-25T08:34:31.595Z,101397.13
2023-01-25T08:35:18.683Z,101403.53
2023-01-25T08:36:06.616Z,101397.13
2023-01-25T08:36:53.618Z,101403.63
2023-01-25T08:37:40.527Z,101401.50
2023-01-25T08:38:27.677Z,101405.22
2023-01-25T08:39:14.891Z,101399.50
2023-01-25T08:40:01.938Z,101395.03
2023-01-25T08:40:49.082Z,101398.44
2023-01-25T08:41:36.601Z,101399.22
2023-01-25T08:42:24.666Z,101400.47
2023-01-25T08:43:12.634Z,101397.97
2023-01-25T08:44:00.117Z,101399.41
2023-01-25T08:44:48.232Z,101393.41
2023-01-25T08:45:37.331Z,101395.09
2023-01-25T08:46:27.254Z,101394.22
2023-01-25T08:47:15.547Z,101391.41
2023-01-25T08:48:02.552Z,101393.47
2023-01-25T08:48:53.333Z,101396.19
2023-01-25T08:49:40.466Z,101386.81
2023-01-25T08:50:27.443Z,101387.91
2023-01-25T08:51:16.430Z,101387.16
2023-01-25T08:52:03.517Z,101391.34
2023-01-25T08:52:52.238Z,101390.50
2023-01-25T08:53:39.219Z,101392.72
2023-01-25T08:54:26.373Z,101398.25
2023-01-25T08:55:13.350Z,101393.47
2023-01-25T08:56:08.448Z,101390.28
2023-01-25T08:56:55.485Z,101397.34
2023-01-25T08:57:42.499Z,101395.00
2023-01-25T08:58:30.103Z,101399.72
2023-01-25T08:59:17.178Z,101398.84
2023-01-25T09:00:04.605Z,101396.53
2023-01-25T09:00:51.703Z,101403.37
2023-01-25T09:01:38.808Z,101405.25
2023-01-25T09:02:25.837Z,101399.56
2023-01-25T09:03:14.105Z,101408.12
2023-01-25T09:04:01.426Z,101415.66
2023-01-25T09:04:48.747Z,101410.72
2023-01-25T09:05:36.168Z,101418.72
2023-01-25T09:06:23.160Z,101420.41
2023-01-25T09:07:10.203Z,101417.34
2023-01-25T09:07:57.203Z,101414.88
2023-01-25T09:08:44.979Z,101421.91
2023-01-25T09:09:32.849Z,101417.63
2023-01-25T09:10:20.151Z,101417.72
2023-01-25T09:11:18.373Z,101418.62